createdAt,value
2019-03-13T00:00:49.580Z,86.00
2019-03-13T00:03:18.734Z,86.20
2019-03-13T00:05:47.932Z,87.10
2019-03-13T00:08:17.133Z,88.20
2019-03-13T00:10:46.332Z,89.50
2019-03-13T00:13:15.428Z,89.10
2019-03-13T00:15:44.825Z,89.70
2019-03-13T00:18:13.928Z,90.20
2019-03-13T00:20:43.011Z,90.10
2019-03-13T00:23:12.211Z,90.00
2019-03-13T00:25:40.993Z,90.20
2019-03-13T00:28:09.823Z,90.70
2019-03-13T00:30:39.004Z,91.10
2019-03-13T00:33:08.084Z,91.40
2019-03-13T00:35:37.178Z,91.30
2019-03-13T00:38:05.893Z,91.40
2019-03-13T00:40:34.978Z,91.40
2019-03-13T00:43:03.807Z,91.70
2019-03-13T00:45:33.358Z,91.80
2019-03-13T00:48:02.067Z,91.80
2019-03-13T00:50:33.103Z,91.80
2019-03-13T00:53:02.182Z,91.80
2019-03-13T00:55:30.893Z,91.60
2019-03-13T00:58:00.080Z,91.70
2019-03-13T01:00:46.214Z,91.70
2019-03-13T01:03:16.576Z,91.70
2019-03-13T01:05:49.679Z,91.90
2019-03-13T01:08:18.889Z,91.80
2019-03-13T01:10:47.984Z,91.90
2019-03-13T01:13:16.752Z,91.90
2019-03-13T01:15:45.862Z,91.90
2019-03-13T01:18:14.965Z,91.80
2019-03-13T01:20:43.740Z,91.80
2019-03-13T01:23:12.491Z,91.80
2019-03-13T01:25:41.528Z,91.80
2019-03-13T01:28:10.236Z,92.10
2019-03-13T01:30:49.761Z,91.40
2019-03-13T01:33:19.637Z,91.50
2019-03-13T01:35:53.481Z,91.70
2019-03-13T01:38:22.480Z,91.70
2019-03-13T01:40:51.230Z,91.60
2019-03-13T01:43:20.260Z,91.70
2019-03-13T01:45:49.347Z,91.50
2019-03-13T01:48:18.451Z,91.50
2019-03-13T01:50:47.552Z,91.40
2019-03-13T01:53:16.342Z,91.30
2019-03-13T01:55:45.424Z,91.40
2019-03-13T01:58:14.130Z,91.40
2019-03-13T02:00:43.210Z,91.50
2019-03-13T02:03:12.717Z,91.50
2019-03-13T02:05:41.419Z,90.90
2019-03-13T02:08:10.203Z,91.30
2019-03-13T02:10:39.283Z,91.50
2019-03-13T02:13:08.062Z,91.40
2019-03-13T02:15:37.071Z,91.30
2019-03-13T02:18:06.477Z,91.50
2019-03-13T02:20:35.571Z,91.40
2019-03-13T02:23:04.352Z,91.20
2019-03-13T02:25:33.167Z,91.20
2019-03-13T02:28:02.240Z,91.00
2019-03-13T02:30:32.075Z,91.10
2019-03-13T02:33:00.793Z,91.20
2019-03-13T02:35:29.944Z,91.30
2019-03-13T02:37:59.042Z,91.30
2019-03-13T02:40:28.137Z,91.20
2019-03-13T02:42:57.227Z,91.20
2019-03-13T02:45:26.065Z,91.20
2019-03-13T02:47:55.120Z,91.00
2019-03-13T02:50:23.908Z,91.10
2019-03-13T02:52:52.860Z,91.10
2019-03-13T02:55:21.997Z,90.80
2019-03-13T02:57:50.712Z,91.10
2019-03-13T03:00:35.953Z,91.00
2019-03-13T03:03:21.841Z,91.20
2019-03-13T03:05:50.942Z,91.40
2019-03-13T03:08:20.059Z,91.40
2019-03-13T03:10:48.749Z,91.40
2019-03-13T03:13:17.501Z,91.70
2019-03-13T03:15:46.606Z,91.80
2019-03-13T03:18:15.914Z,91.50
2019-03-13T03:20:45.210Z,91.50
2019-03-13T03:23:14.166Z,91.50
2019-03-13T03:25:43.190Z,91.40
2019-03-13T03:28:11.897Z,91.60
2019-03-13T03:30:40.973Z,91.60
2019-03-13T03:33:10.080Z,91.60
2019-03-13T03:35:39.173Z,91.60
2019-03-13T03:38:08.260Z,91.50
2019-03-13T03:40:37.255Z,91.50
2019-03-13T03:43:06.269Z,91.30
2019-03-13T03:45:35.349Z,91.20
2019-03-13T03:48:04.547Z,91.00
2019-03-13T03:50:33.640Z,91.00
2019-03-13T03:53:02.843Z,90.90
2019-03-13T03:55:31.653Z,90.80
2019-03-13T03:58:00.721Z,90.90
2019-03-13T04:00:29.930Z,90.90
2019-03-13T04:02:59.033Z,91.20
2019-03-13T04:05:28.248Z,91.00
2019-03-13T04:07:57.417Z,90.90
2019-03-13T04:10:26.123Z,91.00
2019-03-13T04:12:55.207Z,91.00
2019-03-13T04:15:24.301Z,90.80
2019-03-13T04:17:53.407Z,90.70
2019-03-13T04:20:22.232Z,91.00
2019-03-13T04:22:51.281Z,91.10
2019-03-13T04:25:25.693Z,90.70
2019-03-13T04:27:54.797Z,90.80
2019-03-13T04:30:23.900Z,90.80
2019-03-13T04:32:53.095Z,91.00
2019-03-13T04:35:22.185Z,90.90
2019-03-13T04:37:51.276Z,91.20
2019-03-13T04:40:20.474Z,91.40
2019-03-13T04:42:49.252Z,91.50
2019-03-13T04:45:18.260Z,91.60
2019-03-13T04:47:47.351Z,91.50
2019-03-13T04:50:16.959Z,91.80
2019-03-13T04:52:45.895Z,91.90
2019-03-13T04:55:16.494Z,91.80
2019-03-13T04:57:45.273Z,91.80
2019-03-13T05:00:19.288Z,91.70
2019-03-13T05:02:48.003Z,91.80
2019-03-13T05:05:37.854Z,91.80
2019-03-13T05:08:06.951Z,91.70
2019-03-13T05:10:36.058Z,91.90
2019-03-13T05:13:04.849Z,91.60
2019-03-13T05:15:33.966Z,91.60
2019-03-13T05:18:02.671Z,91.70
2019-03-13T05:20:31.374Z,91.70
2019-03-13T05:23:00.123Z,91.40
2019-03-13T05:25:29.194Z,91.50
2019-03-13T05:27:58.384Z,91.70
2019-03-13T05:30:27.105Z,91.70
2019-03-13T05:32:55.971Z,91.90
2019-03-13T05:35:25.060Z,92.10
2019-03-13T05:37:54.159Z,92.20
2019-03-13T05:40:22.899Z,92.20
2019-03-13T05:42:51.940Z,92.20
2019-03-13T05:45:20.712Z,92.20
2019-03-13T05:47:49.928Z,92.10
2019-03-13T05:50:18.812Z,92.10
2019-03-13T05:52:47.529Z,92.10
2019-03-13T05:55:16.708Z,91.60
2019-03-13T05:57:45.804Z,91.80
2019-03-13T06:00:16.664Z,91.80
2019-03-13T06:02:47.665Z,91.80
2019-03-13T06:05:16.064Z,91.70
2019-03-13T06:07:45.148Z,91.70
2019-03-13T06:10:17.217Z,91.80
2019-03-13T06:12:45.936Z,91.70
2019-03-13T06:15:15.466Z,91.90
2019-03-13T06:17:44.247Z,92.00
2019-03-13T06:20:17.716Z,91.80
2019-03-13T06:22:46.904Z,91.70
2019-03-13T06:25:16.000Z,91.50
2019-03-13T06:27:46.382Z,91.70
2019-03-13T06:30:21.050Z,91.50
2019-03-13T06:32:50.145Z,91.70
2019-03-13T06:35:18.917Z,92.00
2019-03-13T06:37:47.696Z,92.10
2019-03-13T06:40:22.146Z,92.00
2019-03-13T06:42:51.441Z,92.10
2019-03-13T06:45:23.197Z,92.20
2019-03-13T06:47:50.671Z,92.20
2019-03-13T06:50:24.465Z,92.40
2019-03-13T06:52:53.552Z,92.50
2019-03-13T06:55:22.565Z,92.50
2019-03-13T06:57:51.319Z,92.50
2019-03-13T07:00:42.238Z,92.50
2019-03-13T07:03:18.734Z,92.60
2019-03-13T07:05:54.881Z,91.70
2019-03-13T07:08:41.646Z,91.50
2019-03-13T07:11:18.099Z,91.70
2019-03-13T07:13:48.896Z,91.20
2019-03-13T07:16:22.286Z,91.10
2019-03-13T07:18:51.792Z,90.80
2019-03-13T07:21:34.119Z,90.90
2019-03-13T07:24:04.475Z,90.80
2019-03-13T07:26:38.036Z,90.70
2019-03-13T07:29:12.427Z,90.70
2019-03-13T07:31:46.134Z,90.70
2019-03-13T07:34:18.955Z,90.80
2019-03-13T07:37:06.165Z,90.60
2019-03-13T07:39:39.867Z,90.80
2019-03-13T07:42:19.079Z,91.00
2019-03-13T07:45:02.022Z,90.80
2019-03-13T07:47:35.130Z,90.60
2019-03-13T07:50:07.065Z,90.40
2019-03-13T07:52:37.412Z,90.40
2019-03-13T07:55:18.776Z,89.90
2019-03-13T07:57:55.363Z,89.40
2019-03-13T08:00:37.975Z,87.00
2019-03-13T08:03:19.892Z,84.90
2019-03-13T08:05:50.276Z,84.30
2019-03-13T08:08:38.939Z,84.00
2019-03-13T08:11:16.017Z,83.60
2019-03-13T08:13:55.963Z,84.90
2019-03-13T08:16:29.359Z,85.70
2019-03-13T08:19:08.039Z,86.40
2019-03-13T08:21:41.151Z,86.80
2019-03-13T08:24:28.402Z,87.20
2019-03-13T08:26:58.788Z,88.00
2019-03-13T08:29:34.838Z,88.50
2019-03-13T08:32:17.704Z,89.70
2019-03-13T08:34:48.085Z,89.30
2019-03-13T08:37:21.495Z,89.00
2019-03-13T08:40:00.956Z,89.80
2019-03-13T08:42:40.719Z,88.90
2019-03-13T08:45:13.875Z,88.50
2019-03-13T08:48:00.919Z,88.20
2019-03-13T08:50:31.659Z,86.40
2019-03-13T08:53:02.390Z,87.20
2019-03-13T08:55:32.776Z,86.70
2019-03-13T08:58:03.458Z,87.00
2019-03-13T09:00:33.940Z,87.00
2019-03-13T09:03:06.718Z,88.60
2019-03-13T09:05:37.116Z,88.80
2019-03-13T09:08:07.471Z,88.10
2019-03-13T09:10:37.818Z,87.40
2019-03-13T09:13:14.195Z,88.40
2019-03-13T09:15:44.550Z,87.20
2019-03-13T09:18:26.933Z,88.30
2019-03-13T09:21:00.391Z,84.00
2019-03-13T09:23:37.418Z,82.90
2019-03-13T09:26:11.115Z,78.30
2019-03-13T09:28:41.475Z,77.90
2019-03-13T09:31:20.586Z,73.30
2019-03-13T09:33:56.924Z,73.30
2019-03-13T09:36:36.453Z,68.50
2019-03-13T09:39:07.928Z,67.70
2019-03-13T09:41:56.507Z,66.10
2019-03-13T09:44:27.225Z,67.70
2019-03-13T09:47:04.101Z,66.60
2019-03-13T09:49:43.659Z,63.80
2019-03-13T09:52:30.571Z,65.10
2019-03-13T09:55:16.839Z,65.20
2019-03-13T09:57:53.552Z,63.50
2019-03-13T10:00:40.447Z,61.10
2019-03-13T10:03:11.181Z,62.20
2019-03-13T10:05:53.461Z,59.90
2019-03-13T10:08:24.211Z,60.00
2019-03-13T10:11:13.175Z,58.60
2019-03-13T10:13:59.781Z,59.00
2019-03-13T10:16:30.142Z,60.60
2019-03-13T10:19:01.801Z,59.70
2019-03-13T10:21:38.134Z,59.80
2019-03-13T10:24:08.501Z,60.20
2019-03-13T10:26:41.970Z,60.10
2019-03-13T10:29:15.154Z,58.50
2019-03-13T10:31:48.054Z,57.00
2019-03-13T10:34:30.711Z,57.60
2019-03-13T10:37:07.067Z,56.50
2019-03-13T10:39:53.609Z,58.40
2019-03-13T10:42:23.960Z,57.40
2019-03-13T10:45:09.927Z,57.60
2019-03-13T10:47:52.568Z,56.30
2019-03-13T10:50:31.712Z,55.70
2019-03-13T10:53:02.071Z,56.20
2019-03-13T10:55:38.784Z,57.30
2019-03-13T10:58:25.688Z,56.50
2019-03-13T11:01:14.534Z,56.30
2019-03-13T11:04:01.477Z,55.40
2019-03-13T11:06:32.198Z,55.10
2019-03-13T11:09:02.942Z,53.90
2019-03-13T11:11:33.664Z,53.70
2019-03-13T11:14:15.609Z,55.00
2019-03-13T11:16:55.191Z,54.00
2019-03-13T11:19:28.674Z,54.50
2019-03-13T11:22:01.774Z,53.90
2019-03-13T11:24:31.286Z,53.30
2019-03-13T11:27:07.712Z,52.10
2019-03-13T11:29:44.443Z,53.10
2019-03-13T11:32:20.648Z,52.30
2019-03-13T11:34:51.350Z,51.50
2019-03-13T11:37:21.704Z,52.40
2019-03-13T11:39:58.435Z,51.10
2019-03-13T11:42:45.555Z,50.40
2019-03-13T11:45:28.076Z,50.90
2019-03-13T11:48:01.436Z,52.60
2019-03-13T11:50:34.913Z,51.30
2019-03-13T11:53:08.260Z,52.00
2019-03-13T11:55:45.045Z,51.80
2019-03-13T11:58:18.914Z,50.30
2019-03-13T12:01:05.958Z,51.80
2019-03-13T12:03:48.553Z,51.20
2019-03-13T12:06:34.368Z,50.60
2019-03-13T12:09:10.436Z,50.90
2019-03-13T12:11:41.160Z,51.90
2019-03-13T12:14:20.600Z,51.70
2019-03-13T12:16:57.071Z,48.10
2019-03-13T12:19:45.692Z,49.20
2019-03-13T12:22:16.451Z,49.00
2019-03-13T12:24:47.183Z,49.40
2019-03-13T12:27:20.888Z,48.30
2019-03-13T12:30:06.779Z,48.00
2019-03-13T12:32:43.106Z,49.20
2019-03-13T12:35:31.676Z,50.40
2019-03-13T12:38:18.423Z,53.70
2019-03-13T12:41:04.762Z,50.90
2019-03-13T12:43:35.162Z,52.40
2019-03-13T12:46:08.637Z,52.10
2019-03-13T12:48:45.107Z,51.90
2019-03-13T12:51:21.581Z,53.80
2019-03-13T12:54:01.418Z,53.10
2019-03-13T12:56:32.159Z,53.20
2019-03-13T12:59:11.599Z,52.80
2019-03-13T13:01:42.963Z,52.10
2019-03-13T13:04:25.665Z,52.80
2019-03-13T13:07:02.537Z,51.10
2019-03-13T13:09:49.660Z,52.70
2019-03-13T13:12:26.130Z,51.50
2019-03-13T13:14:59.255Z,52.60
2019-03-13T13:17:45.336Z,53.10
2019-03-13T13:20:14.803Z,50.90
2019-03-13T13:22:43.913Z,52.40
2019-03-13T13:25:12.701Z,52.60
2019-03-13T13:27:41.800Z,53.10
2019-03-13T13:30:14.072Z,51.20
2019-03-13T13:32:43.165Z,51.80
2019-03-13T13:35:12.470Z,50.60
2019-03-13T13:37:41.564Z,51.20
2019-03-13T13:40:16.170Z,49.80
2019-03-13T13:42:45.004Z,51.80
2019-03-13T13:45:35.060Z,51.20
2019-03-13T13:48:03.783Z,52.40
2019-03-13T13:50:32.852Z,52.10
2019-03-13T13:53:01.623Z,50.90
2019-03-13T13:55:30.347Z,51.70
2019-03-13T13:57:59.422Z,51.70
2019-03-13T14:00:28.613Z,51.40
2019-03-13T14:02:57.395Z,51.30
2019-03-13T14:05:26.504Z,52.70
2019-03-13T14:07:55.331Z,53.00
2019-03-13T14:10:24.121Z,52.50
2019-03-13T14:12:52.840Z,52.50
2019-03-13T14:15:21.968Z,52.80
2019-03-13T14:17:50.675Z,53.10
2019-03-13T14:20:19.750Z,54.10
2019-03-13T14:22:48.497Z,53.90
2019-03-13T14:25:17.212Z,53.10
2019-03-13T14:27:45.997Z,53.00
2019-03-13T14:30:20.322Z,51.70
2019-03-13T14:32:49.436Z,54.10
2019-03-13T14:35:18.252Z,54.60
2019-03-13T14:37:47.406Z,54.10
2019-03-13T14:40:19.066Z,54.90
2019-03-13T14:42:47.891Z,54.20
2019-03-13T14:45:18.779Z,53.00
2019-03-13T14:47:47.888Z,53.10
2019-03-13T14:50:22.113Z,52.20
2019-03-13T14:52:50.996Z,53.60
2019-03-13T14:55:20.204Z,53.10
2019-03-13T14:57:49.292Z,52.90
2019-03-13T15:00:25.660Z,52.40
2019-03-13T15:02:54.764Z,53.30
2019-03-13T15:05:23.487Z,52.50
2019-03-13T15:07:52.544Z,51.80
2019-03-13T15:10:22.661Z,53.70
2019-03-13T15:12:51.760Z,53.70
2019-03-13T15:15:24.650Z,54.60
2019-03-13T15:17:53.725Z,54.00
2019-03-13T15:20:27.743Z,54.20
2019-03-13T15:22:56.949Z,57.20
2019-03-13T15:25:25.752Z,60.00
2019-03-13T15:27:54.832Z,60.10
2019-03-13T15:30:28.030Z,62.30
2019-03-13T15:32:56.242Z,63.40
2019-03-13T15:35:25.048Z,64.70
2019-03-13T15:37:54.078Z,64.10
2019-03-13T15:40:22.895Z,63.90
2019-03-13T15:42:51.678Z,61.80
2019-03-13T15:45:26.087Z,61.50
2019-03-13T15:47:54.917Z,60.50
2019-03-13T15:50:23.706Z,59.40
2019-03-13T15:52:52.862Z,58.70
2019-03-13T15:55:22.056Z,58.70
2019-03-13T15:57:50.864Z,59.10
2019-03-13T16:00:28.012Z,61.60
2019-03-13T16:02:57.129Z,59.80
2019-03-13T16:05:26.225Z,60.60
2019-03-13T16:07:55.038Z,59.70
2019-03-13T16:10:23.747Z,60.00
2019-03-13T16:12:54.962Z,60.10
2019-03-13T16:15:32.646Z,60.90
2019-03-13T16:18:01.839Z,59.80
2019-03-13T16:20:30.927Z,60.40
2019-03-13T16:23:01.467Z,60.80
2019-03-13T16:25:30.400Z,61.70
2019-03-13T16:27:59.387Z,62.40
2019-03-13T16:30:33.999Z,63.40
2019-03-13T16:33:03.297Z,63.30
2019-03-13T16:35:32.167Z,63.30
2019-03-13T16:38:01.165Z,64.50
2019-03-13T16:40:31.876Z,64.40
2019-03-13T16:43:00.686Z,64.30
2019-03-13T16:45:29.782Z,64.90
2019-03-13T16:47:58.984Z,65.30
2019-03-13T16:50:38.527Z,65.50
2019-03-13T16:53:07.276Z,67.00
2019-03-13T16:55:36.060Z,67.20
2019-03-13T16:58:05.297Z,66.70
2019-03-13T17:00:34.815Z,65.50
2019-03-13T17:03:03.898Z,65.90
2019-03-13T17:05:32.689Z,65.70
2019-03-13T17:08:01.792Z,66.30
2019-03-13T17:10:30.576Z,66.40
2019-03-13T17:12:59.396Z,66.60
2019-03-13T17:15:28.977Z,66.80
2019-03-13T17:17:57.766Z,66.50
2019-03-13T17:20:32.343Z,66.30
2019-03-13T17:23:01.486Z,66.60
2019-03-13T17:25:30.576Z,66.40
2019-03-13T17:27:59.324Z,66.60
2019-03-13T17:30:32.769Z,66.60
2019-03-13T17:33:01.985Z,66.60
2019-03-13T17:35:30.810Z,66.80
2019-03-13T17:37:59.954Z,66.80
2019-03-13T17:40:30.729Z,67.40
2019-03-13T17:42:59.542Z,67.40
2019-03-13T17:45:28.778Z,67.30
2019-03-13T17:47:57.862Z,67.70
2019-03-13T17:50:26.696Z,67.50
2019-03-13T17:52:55.474Z,67.30
2019-03-13T17:55:25.235Z,67.90
2019-03-13T17:57:54.364Z,67.70
2019-03-13T18:00:42.508Z,67.70
2019-03-13T18:03:11.704Z,67.90
2019-03-13T18:05:40.899Z,68.40
2019-03-13T18:08:09.609Z,68.00
2019-03-13T18:10:38.415Z,68.90
2019-03-13T18:13:07.576Z,68.80
2019-03-13T18:15:36.371Z,69.00
2019-03-13T18:18:05.114Z,69.10
2019-03-13T18:20:34.140Z,69.40
2019-03-13T18:23:03.239Z,69.50
2019-03-13T18:25:32.843Z,69.40
2019-03-13T18:28:01.667Z,69.00
2019-03-13T18:30:32.066Z,69.50
2019-03-13T18:33:00.801Z,69.30
2019-03-13T18:35:29.946Z,69.40
2019-03-13T18:37:59.037Z,69.10
2019-03-13T18:40:28.277Z,69.10
2019-03-13T18:42:57.342Z,69.50
2019-03-13T18:45:32.264Z,69.10
2019-03-13T18:48:01.372Z,69.80
2019-03-13T18:50:30.227Z,69.50
2019-03-13T18:52:59.354Z,69.80
2019-03-13T18:55:34.173Z,69.40
2019-03-13T18:58:03.383Z,69.10
2019-03-13T19:00:36.365Z,69.30
2019-03-13T19:03:07.421Z,69.30
2019-03-13T19:05:38.022Z,69.30
2019-03-13T19:08:07.759Z,69.40
2019-03-13T19:10:36.589Z,69.70
2019-03-13T19:13:05.585Z,69.00
2019-03-13T19:15:34.350Z,69.30
2019-03-13T19:18:03.537Z,69.40
2019-03-13T19:20:32.427Z,68.60
2019-03-13T19:23:01.614Z,68.30
2019-03-13T19:25:30.387Z,68.50
2019-03-13T19:27:59.183Z,68.60
2019-03-13T19:30:32.795Z,68.30
2019-03-13T19:33:01.573Z,68.70
2019-03-13T19:35:30.577Z,68.60
2019-03-13T19:38:05.709Z,68.40
2019-03-13T19:40:35.013Z,68.60
2019-03-13T19:43:04.100Z,68.80
2019-03-13T19:45:38.839Z,68.80
2019-03-13T19:48:07.936Z,68.50
2019-03-13T19:50:37.127Z,68.90
2019-03-13T19:53:06.171Z,67.70
2019-03-13T19:55:35.534Z,67.90
2019-03-13T19:58:07.857Z,67.70
2019-03-13T20:00:36.623Z,67.70
2019-03-13T20:03:11.670Z,67.80
2019-03-13T20:05:45.804Z,68.10
2019-03-13T20:08:13.452Z,68.10
2019-03-13T20:10:41.572Z,68.00
2019-03-13T20:13:10.359Z,68.40
2019-03-13T20:15:39.142Z,68.10
2019-03-13T20:18:08.248Z,68.20
2019-03-13T20:20:37.040Z,68.20
2019-03-13T20:23:08.081Z,68.20
2019-03-13T20:25:37.180Z,67.80
2019-03-13T20:28:06.328Z,67.90
2019-03-13T20:30:35.074Z,67.60
2019-03-13T20:33:04.154Z,67.50
2019-03-13T20:35:36.572Z,67.20
2019-03-13T20:38:04.289Z,66.60
2019-03-13T20:40:33.388Z,66.80
2019-03-13T20:43:02.809Z,66.70
2019-03-13T20:45:31.886Z,67.50
2019-03-13T20:48:01.088Z,66.50
2019-03-13T20:50:36.699Z,66.50
2019-03-13T20:53:00.163Z,66.60
2019-03-13T20:55:29.288Z,65.90
2019-03-13T20:57:58.393Z,66.00
2019-03-13T21:00:28.625Z,65.10
2019-03-13T21:02:58.433Z,64.80
2019-03-13T21:05:28.444Z,64.90
2019-03-13T21:07:57.531Z,64.30
2019-03-13T21:10:26.741Z,65.00
2019-03-13T21:12:55.464Z,64.90
2019-03-13T21:15:28.612Z,65.20
2019-03-13T21:17:57.364Z,64.90
2019-03-13T21:20:26.913Z,65.60
2019-03-13T21:22:58.214Z,65.40
2019-03-13T21:25:27.173Z,66.00
2019-03-13T21:27:56.356Z,66.20
2019-03-13T21:30:30.256Z,66.40
2019-03-13T21:32:59.046Z,67.00
2019-03-13T21:35:27.820Z,67.40
2019-03-13T21:37:56.695Z,68.00
2019-03-13T21:40:26.547Z,68.30
2019-03-13T21:42:55.810Z,68.70
2019-03-13T21:45:24.790Z,69.20
2019-03-13T21:47:53.843Z,69.20
2019-03-13T21:50:22.945Z,69.90
2019-03-13T21:52:51.791Z,69.90
2019-03-13T21:55:20.909Z,70.00
2019-03-13T21:57:51.997Z,69.90
2019-03-13T22:00:22.543Z,70.00
2019-03-13T22:02:51.251Z,70.30
2019-03-13T22:05:25.493Z,70.50
2019-03-13T22:07:51.351Z,70.90
2019-03-13T22:10:21.226Z,71.10
2019-03-13T22:12:50.433Z,71.50
2019-03-13T22:15:20.862Z,72.00
2019-03-13T22:17:50.054Z,72.80
2019-03-13T22:20:19.955Z,73.20
2019-03-13T22:22:49.064Z,73.90
2019-03-13T22:25:19.593Z,74.70
2019-03-13T22:27:48.795Z,74.60
2019-03-13T22:30:22.358Z,75.60
2019-03-13T22:32:51.107Z,75.70
2019-03-13T22:35:20.172Z,76.40
2019-03-13T22:37:49.861Z,76.50
2019-03-13T22:40:19.602Z,77.00
2019-03-13T22:42:48.683Z,77.60
2019-03-13T22:45:19.221Z,78.30
2019-03-13T22:47:48.065Z,79.20
2019-03-13T22:50:21.054Z,79.30
2019-03-13T22:52:49.761Z,80.20
2019-03-13T22:55:18.517Z,81.00
2019-03-13T22:57:47.569Z,81.50
2019-03-13T23:00:52.640Z,81.00
2019-03-13T23:03:23.214Z,82.00
2019-03-13T23:05:52.036Z,82.20
2019-03-13T23:08:21.205Z,83.00
2019-03-13T23:10:50.215Z,82.90
2019-03-13T23:13:19.313Z,83.10
2019-03-13T23:15:48.055Z,83.40
2019-03-13T23:18:18.466Z,83.80
2019-03-13T23:20:47.942Z,83.70
2019-03-13T23:23:17.132Z,83.80
2019-03-13T23:25:45.910Z,83.40
2019-03-13T23:28:14.700Z,83.30
2019-03-13T23:30:43.810Z,83.80
2019-03-13T23:33:12.906Z,83.40
2019-03-13T23:35:41.639Z,83.20
2019-03-13T23:38:10.683Z,83.10
2019-03-13T23:40:39.513Z,83.30
2019-03-13T23:43:08.664Z,83.30
2019-03-13T23:45:37.659Z,82.90
2019-03-13T23:48:06.757Z,82.90
2019-03-13T23:50:35.953Z,83.10
2019-03-13T23:53:05.047Z,82.60
2019-03-13T23:55:33.831Z,82.80
2019-03-13T23:58:02.757Z,82.40
